Playas, New Mexico
Current Conditions -  °F | °C
As of 9:15 PM on Sunday 23 Nov 2014 (Local Time) from KLSB Reporting Station
Clear Clear  
Wind Chill: 35°   Ceiling: Unl
Heat Index: 43°   Visibility: 10mi
Dew Point: -6°   Wind: 16mph
Humidity: 13%   Direction: 300°WNW
Pressure: 30.1"   Gusts: NA
Location:  31.92°N, 108.53°W
Report Text: KLSB 240415Z AUTO 30014KT 10SM CLR 06/M21 A3010 RMK AO2
Loading
Personal Weather Stations






























Interactive Weather Map New forecast layout! Learn more

10-Day Weather Forecast

Advertisements
Track Severe Weather on mobile